KLM589 EHAM-DGAA
Flight info
| Callsign | KLM589 |
|---|---|
| Flight time | N/A |
| Altitude | 35000 |
| Route | WOODY N872 NIK/N0439F230 N872 CIV/N0479F350 DCT KOVIN DCT DUCRA DCT RESMI DCT DEKOD DCT DISAK DCT DIRMO DCT ETAMO DCT ADEKA DCT MOKDI DCT MEN DCT BADAM DCT KANIG DCT KENAS DCT POS DCT WITAZ DCT XESPA DCT GENIO DCT MOGIL UB31 ZEM/N0477F360 UZ333 KAHIL UB726 GHA/N0479F370 UA615 TMS UA604 EREBO/N0487F380 DCT MIGNI DCT ABALA DCT IPUTA DCT TATAT DCT KILMO DCT LITEX LITEX1B |
| Aircraft | B77W/H-SDE1E2E3FGHIJ2J3J4J5M1RWXY/LB1D1 |
Departure
| Time | N/A |
|---|---|
| Airport | Amsterdam Airport Schiphol (EHAM) |
Arrival
| Time | 2026-04-22 20:00 |
|---|---|
| Airport | Kotoka International Airport (DGAA) |
| Time | Latitude | Longitude | Altitude | Speed | Heading |
|---|---|---|---|---|---|
| 2026-04-22 17:30 | 21.53888 | 5.99612 | 36995 ft | 553 kts | 168° |
| 2026-04-22 17:30 | 21.50298 | 6.01152 | 36999 ft | 554 kts | 168° |
| 2026-04-22 17:31 | 21.43100 | 6.04234 | 37000 ft | 558 kts | 168° |
| 2026-04-22 17:31 | 21.35886 | 6.07323 | 36994 ft | 558 kts | 168° |
| 2026-04-22 17:32 | 21.28676 | 6.10405 | 36992 ft | 561 kts | 168° |
| 2026-04-22 17:32 | 21.21441 | 6.13498 | 36994 ft | 559 kts | 169° |
| 2026-04-22 17:33 | 21.14240 | 6.16571 | 36990 ft | 559 kts | 169° |
| 2026-04-22 17:33 | 21.06973 | 6.19668 | 36987 ft | 561 kts | 169° |
| 2026-04-22 17:34 | 20.99744 | 6.22747 | 36994 ft | 560 kts | 168° |
| 2026-04-22 17:34 | 20.92434 | 6.25856 | 36994 ft | 563 kts | 169° |
| 2026-04-22 17:35 | 20.85201 | 6.28930 | 36982 ft | 562 kts | 168° |
| 2026-04-22 17:35 | 20.77908 | 6.32026 | 36987 ft | 563 kts | 168° |
| 2026-04-22 17:36 | 20.70612 | 6.35119 | 36984 ft | 564 kts | 169° |
| 2026-04-22 17:36 | 20.63340 | 6.38201 | 36974 ft | 564 kts | 168° |
| 2026-04-22 17:37 | 20.55989 | 6.41309 | 36968 ft | 566 kts | 168° |
| 2026-04-22 17:37 | 20.48685 | 6.44400 | 36970 ft | 563 kts | 168° |
| 2026-04-22 17:38 | 20.41389 | 6.47480 | 36968 ft | 564 kts | 168° |
| 2026-04-22 17:38 | 20.34065 | 6.50567 | 36971 ft | 569 kts | 168° |
| 2026-04-22 17:39 | 20.26763 | 6.53649 | 36962 ft | 564 kts | 168° |
| 2026-04-22 17:40 | 20.15669 | 6.57343 | 36954 ft | 543 kts | 184° |
| 2026-04-22 17:40 | 20.11922 | 6.57604 | 36946 ft | 525 kts | 192° |
| 2026-04-22 17:40 | 20.08350 | 6.57325 | 36945 ft | 511 kts | 200° |
| 2026-04-22 17:40 | 20.04899 | 6.56543 | 36949 ft | 498 kts | 208° |
| 2026-04-22 17:41 | 20.01603 | 6.55427 | 36963 ft | 495 kts | 210° |
| 2026-04-22 17:41 | 19.95134 | 6.53069 | 36953 ft | 488 kts | 211° |
| 2026-04-22 17:42 | 19.88752 | 6.50640 | 36945 ft | 487 kts | 212° |
| 2026-04-22 17:42 | 19.83438 | 6.48568 | 36938 ft | 488 kts | 212° |
| 2026-04-22 17:43 | 19.75930 | 6.45606 | 36940 ft | 493 kts | 212° |
| 2026-04-22 17:43 | 19.69568 | 6.43088 | 36932 ft | 475 kts | 213° |
| 2026-04-22 17:43 | 19.66536 | 6.41891 | 36935 ft | 460 kts | 213° |
| 2026-04-22 17:44 | 19.63564 | 6.40709 | 36940 ft | 458 kts | 213° |
| 2026-04-22 17:44 | 19.57515 | 6.38286 | 36934 ft | 461 kts | 213° |
| 2026-04-22 17:45 | 19.51470 | 6.35871 | 36938 ft | 465 kts | 213° |
| 2026-04-22 17:45 | 19.45447 | 6.33470 | 36933 ft | 460 kts | 213° |
| 2026-04-22 17:46 | 19.39428 | 6.31067 | 36938 ft | 465 kts | 213° |
| 2026-04-22 17:46 | 19.33380 | 6.28659 | 36935 ft | 462 kts | 212° |
| 2026-04-22 17:47 | 19.27351 | 6.26256 | 36934 ft | 465 kts | 213° |
| 2026-04-22 17:47 | 19.21276 | 6.23839 | 36936 ft | 467 kts | 213° |
| 2026-04-22 17:48 | 19.16196 | 6.21821 | 36934 ft | 465 kts | 212° |
| 2026-04-22 17:48 | 19.09155 | 6.19027 | 36936 ft | 463 kts | 213° |
| 2026-04-22 17:49 | 19.03122 | 6.16631 | 36930 ft | 463 kts | 213° |
| 2026-04-22 17:49 | 18.97025 | 6.14211 | 36937 ft | 468 kts | 212° |
| 2026-04-22 17:50 | 18.90986 | 6.11820 | 36934 ft | 467 kts | 213° |
| 2026-04-22 17:50 | 18.84849 | 6.09389 | 36925 ft | 468 kts | 212° |
| 2026-04-22 17:51 | 18.78773 | 6.06986 | 36924 ft | 467 kts | 212° |
| 2026-04-22 17:51 | 18.72706 | 6.04589 | 36929 ft | 466 kts | 212° |
| 2026-04-22 17:52 | 18.66599 | 6.02174 | 36925 ft | 468 kts | 212° |
| 2026-04-22 17:52 | 18.60539 | 5.99784 | 36929 ft | 468 kts | 213° |
| 2026-04-22 17:53 | 18.54397 | 5.97361 | 36928 ft | 466 kts | 212° |
| 2026-04-22 17:53 | 18.48328 | 5.94970 | 36925 ft | 466 kts | 212° |
| 2026-04-22 17:54 | 18.42251 | 5.92576 | 36934 ft | 468 kts | 212° |
| 2026-04-22 17:54 | 18.36189 | 5.90194 | 36927 ft | 463 kts | 212° |
| 2026-04-22 17:55 | 18.31159 | 5.88211 | 36930 ft | 470 kts | 212° |
| 2026-04-22 17:55 | 18.24031 | 5.85413 | 36927 ft | 465 kts | 212° |
| 2026-04-22 17:56 | 18.17978 | 5.83037 | 36927 ft | 465 kts | 212° |
| 2026-04-22 17:56 | 18.11892 | 5.80647 | 36925 ft | 467 kts | 212° |
| 2026-04-22 17:57 | 18.05841 | 5.78276 | 36925 ft | 465 kts | 212° |
| 2026-04-22 17:57 | 17.99695 | 5.75867 | 36929 ft | 468 kts | 212° |
| 2026-04-22 17:58 | 17.93605 | 5.73482 | 36925 ft | 471 kts | 212° |
| 2026-04-22 17:58 | 17.87498 | 5.71098 | 36911 ft | 462 kts | 212° |
| 2026-04-22 17:59 | 17.81491 | 5.68516 | 36919 ft | 457 kts | 220° |
| 2026-04-22 17:59 | 17.76095 | 5.65166 | 36914 ft | 450 kts | 222° |
| 2026-04-22 18:00 | 17.71651 | 5.62357 | 36917 ft | 449 kts | 222° |
| 2026-04-22 18:00 | 17.65376 | 5.58394 | 36912 ft | 450 kts | 221° |
| 2026-04-22 18:01 | 17.59976 | 5.54988 | 36909 ft | 453 kts | 222° |
| 2026-04-22 18:01 | 17.54597 | 5.51602 | 36911 ft | 453 kts | 221° |
| 2026-04-22 18:02 | 17.49209 | 5.48212 | 36910 ft | 451 kts | 222° |
| 2026-04-22 18:02 | 17.43836 | 5.44835 | 36901 ft | 449 kts | 221° |
| 2026-04-22 18:03 | 17.38468 | 5.41463 | 36904 ft | 450 kts | 221° |
| 2026-04-22 18:03 | 17.33058 | 5.38065 | 36900 ft | 451 kts | 221° |
| 2026-04-22 18:04 | 17.27697 | 5.34702 | 36903 ft | 451 kts | 221° |
| 2026-04-22 18:04 | 17.22302 | 5.31320 | 36920 ft | 451 kts | 221° |
| 2026-04-22 18:05 | 17.16884 | 5.27925 | 36919 ft | 452 kts | 221° |
| 2026-04-22 18:05 | 17.11519 | 5.24565 | 36923 ft | 453 kts | 221° |
| 2026-04-22 18:06 | 17.06118 | 5.21188 | 36912 ft | 450 kts | 220° |
| 2026-04-22 18:06 | 17.00732 | 5.17817 | 36917 ft | 455 kts | 220° |
| 2026-04-22 18:07 | 16.96209 | 5.14993 | 36914 ft | 451 kts | 221° |
| 2026-04-22 18:07 | 16.89931 | 5.11072 | 36913 ft | 452 kts | 220° |
| 2026-04-22 18:08 | 16.84511 | 5.07690 | 36900 ft | 453 kts | 221° |
| 2026-04-22 18:08 | 16.79097 | 5.04314 | 36900 ft | 455 kts | 220° |
| 2026-04-22 18:09 | 16.73652 | 5.00922 | 36900 ft | 453 kts | 220° |
| 2026-04-22 18:09 | 16.68255 | 4.97561 | 36899 ft | 452 kts | 220° |
| 2026-04-22 18:10 | 16.62849 | 4.94196 | 36903 ft | 456 kts | 220° |
| 2026-04-22 18:10 | 16.57430 | 4.90826 | 36898 ft | 454 kts | 220° |
| 2026-04-22 18:11 | 16.52035 | 4.87475 | 36898 ft | 452 kts | 220° |
| 2026-04-22 18:11 | 16.46615 | 4.84108 | 36897 ft | 451 kts | 220° |
| 2026-04-22 18:12 | 16.41220 | 4.80758 | 36899 ft | 454 kts | 220° |
| 2026-04-22 18:12 | 16.36698 | 4.77952 | 36899 ft | 455 kts | 220° |
| 2026-04-22 18:13 | 16.30362 | 4.74027 | 36896 ft | 452 kts | 220° |
| 2026-04-22 18:13 | 16.24896 | 4.70639 | 36894 ft | 456 kts | 219° |
| 2026-04-22 18:14 | 16.19480 | 4.67288 | 36895 ft | 452 kts | 220° |
| 2026-04-22 18:14 | 16.14057 | 4.63932 | 36896 ft | 455 kts | 220° |
| 2026-04-22 18:15 | 16.08579 | 4.60546 | 36891 ft | 454 kts | 219° |
| 2026-04-22 18:15 | 16.02986 | 4.57399 | 36894 ft | 463 kts | 213° |
| 2026-04-22 18:16 | 15.97074 | 4.54675 | 36885 ft | 465 kts | 213° |
| 2026-04-22 18:16 | 15.91162 | 4.51962 | 36885 ft | 465 kts | 212° |
| 2026-04-22 18:17 | 15.85247 | 4.49247 | 36875 ft | 462 kts | 212° |
| 2026-04-22 18:17 | 15.79326 | 4.46526 | 36871 ft | 467 kts | 212° |
| 2026-04-22 18:18 | 15.73400 | 4.43808 | 36878 ft | 466 kts | 212° |
| 2026-04-22 18:18 | 15.67492 | 4.41098 | 36878 ft | 468 kts | 212° |
| 2026-04-22 18:19 | 15.61564 | 4.38381 | 36871 ft | 464 kts | 212° |
| 2026-04-22 18:19 | 15.55621 | 4.35659 | 36865 ft | 463 kts | 212° |
| 2026-04-22 18:20 | 15.49702 | 4.32948 | 36879 ft | 468 kts | 211° |
| 2026-04-22 18:20 | 15.43759 | 4.30229 | 36879 ft | 465 kts | 211° |
| 2026-04-22 18:21 | 15.37870 | 4.27536 | 36878 ft | 466 kts | 211° |
| 2026-04-22 18:21 | 15.31887 | 4.24801 | 36863 ft | 469 kts | 211° |
| 2026-04-22 18:22 | 15.25946 | 4.22090 | 36865 ft | 465 kts | 211° |
| 2026-04-22 18:22 | 15.20017 | 4.19382 | 36867 ft | 470 kts | 211° |
| 2026-04-22 18:23 | 15.14022 | 4.16649 | 36852 ft | 468 kts | 211° |
| 2026-04-22 18:23 | 15.08073 | 4.13936 | 36857 ft | 469 kts | 211° |
| 2026-04-22 18:24 | 14.99127 | 4.09861 | 36848 ft | 469 kts | 211° |
| 2026-04-22 18:25 | 14.90105 | 4.05754 | 36847 ft | 469 kts | 211° |
| 2026-04-22 18:25 | 14.84134 | 4.03040 | 36841 ft | 468 kts | 211° |
| 2026-04-22 18:26 | 14.75195 | 3.98977 | 36842 ft | 470 kts | 211° |
| 2026-04-22 18:26 | 14.69213 | 3.96263 | 36845 ft | 466 kts | 211° |
| 2026-04-22 18:27 | 14.63224 | 3.93543 | 36837 ft | 467 kts | 210° |
| 2026-04-22 18:27 | 14.57297 | 3.90856 | 36835 ft | 466 kts | 211° |
| 2026-04-22 18:28 | 14.51320 | 3.88145 | 36835 ft | 471 kts | 210° |
| 2026-04-22 18:28 | 14.45328 | 3.85433 | 36834 ft | 467 kts | 210° |
| 2026-04-22 18:29 | 14.39372 | 3.82736 | 36834 ft | 468 kts | 210° |
| 2026-04-22 18:29 | 14.33378 | 3.80024 | 36838 ft | 470 kts | 210° |
| 2026-04-22 18:30 | 14.24384 | 3.75958 | 36839 ft | 467 kts | 210° |
| 2026-04-22 18:31 | 14.18423 | 3.73264 | 36842 ft | 471 kts | 210° |
| 2026-04-22 18:31 | 14.12452 | 3.70569 | 36839 ft | 468 kts | 210° |
| 2026-04-22 18:32 | 14.06439 | 3.67854 | 36836 ft | 471 kts | 210° |
| 2026-04-22 18:32 | 14.00484 | 3.65170 | 36844 ft | 469 kts | 209° |
| 2026-04-22 18:33 | 13.94483 | 3.62466 | 36831 ft | 467 kts | 210° |
| 2026-04-22 18:33 | 13.88502 | 3.59769 | 36829 ft | 472 kts | 210° |
| 2026-04-22 18:34 | 13.82447 | 3.57044 | 36829 ft | 470 kts | 209° |
| 2026-04-22 18:34 | 13.76485 | 3.54361 | 36826 ft | 473 kts | 210° |
| 2026-04-22 18:35 | 13.70426 | 3.51636 | 36829 ft | 473 kts | 210° |
| 2026-04-22 18:35 | 13.64432 | 3.48943 | 36826 ft | 473 kts | 209° |
| 2026-04-22 18:36 | 13.58380 | 3.46229 | 36826 ft | 473 kts | 209° |
| 2026-04-22 18:36 | 13.52354 | 3.43498 | 36829 ft | 474 kts | 210° |
| 2026-04-22 18:37 | 13.46357 | 3.40700 | 36827 ft | 470 kts | 210° |
| 2026-04-22 18:37 | 13.41348 | 3.38364 | 36830 ft | 476 kts | 210° |
| 2026-04-22 18:38 | 13.34341 | 3.35105 | 36824 ft | 473 kts | 210° |
| 2026-04-22 18:38 | 13.28270 | 3.32283 | 36839 ft | 477 kts | 209° |
| 2026-04-22 18:39 | 13.19220 | 3.28083 | 36835 ft | 476 kts | 210° |
| 2026-04-22 18:39 | 13.13191 | 3.25287 | 36839 ft | 475 kts | 209° |
| 2026-04-22 18:40 | 13.07145 | 3.22484 | 36836 ft | 479 kts | 209° |
| 2026-04-22 18:40 | 13.01077 | 3.19674 | 36838 ft | 477 kts | 209° |
| 2026-04-22 18:41 | 12.95034 | 3.16876 | 36838 ft | 479 kts | 209° |
| 2026-04-22 18:41 | 12.88961 | 3.14067 | 36832 ft | 476 kts | 209° |
| 2026-04-22 18:42 | 12.82879 | 3.11254 | 36831 ft | 476 kts | 209° |
| 2026-04-22 18:42 | 12.76848 | 3.08465 | 36831 ft | 477 kts | 209° |
| 2026-04-22 18:43 | 12.70801 | 3.05672 | 36830 ft | 476 kts | 208° |
| 2026-04-22 18:43 | 12.64735 | 3.02870 | 36830 ft | 477 kts | 208° |
| 2026-04-22 18:44 | 12.58720 | 3.00095 | 36829 ft | 476 kts | 208° |
| 2026-04-22 18:44 | 12.52686 | 2.97311 | 36826 ft | 474 kts | 208° |
| 2026-04-22 18:45 | 12.46678 | 2.94541 | 36824 ft | 475 kts | 208° |
| 2026-04-22 18:45 | 12.40613 | 2.91746 | 36822 ft | 475 kts | 208° |
| 2026-04-22 18:46 | 12.34590 | 2.88972 | 36821 ft | 473 kts | 208° |
| 2026-04-22 18:46 | 12.28601 | 2.86215 | 36824 ft | 473 kts | 208° |
| 2026-04-22 18:47 | 12.22610 | 2.83458 | 36826 ft | 473 kts | 207° |
| 2026-04-22 18:47 | 12.16606 | 2.80697 | 36829 ft | 473 kts | 207° |
| 2026-04-22 18:48 | 12.10582 | 2.77928 | 36829 ft | 472 kts | 208° |
| 2026-04-22 18:48 | 12.04598 | 2.75179 | 36830 ft | 473 kts | 207° |
| 2026-04-22 18:49 | 11.98609 | 2.72429 | 36826 ft | 474 kts | 207° |
| 2026-04-22 18:49 | 11.92578 | 2.69660 | 36830 ft | 472 kts | 207° |
| 2026-04-22 18:50 | 11.86560 | 2.66899 | 36831 ft | 473 kts | 207° |
| 2026-04-22 18:50 | 11.80571 | 2.64153 | 36835 ft | 473 kts | 207° |
| 2026-04-22 18:51 | 11.74558 | 2.61397 | 36837 ft | 472 kts | 207° |
| 2026-04-22 18:51 | 11.68514 | 2.58627 | 36841 ft | 474 kts | 207° |
| 2026-04-22 18:52 | 11.62519 | 2.55883 | 36843 ft | 472 kts | 207° |
| 2026-04-22 18:52 | 11.56507 | 2.53131 | 36846 ft | 475 kts | 207° |
| 2026-04-22 18:53 | 11.50454 | 2.50362 | 36846 ft | 474 kts | 207° |
| 2026-04-22 18:53 | 11.44443 | 2.47614 | 36846 ft | 476 kts | 207° |
| 2026-04-22 18:54 | 11.38420 | 2.44861 | 36846 ft | 474 kts | 207° |
| 2026-04-22 18:54 | 11.32381 | 2.42102 | 36848 ft | 476 kts | 207° |
| 2026-04-22 18:55 | 11.26344 | 2.39346 | 36844 ft | 475 kts | 207° |
| 2026-04-22 18:55 | 11.20291 | 2.36584 | 36850 ft | 476 kts | 207° |
| 2026-04-22 18:56 | 11.14238 | 2.33823 | 36855 ft | 476 kts | 207° |
| 2026-04-22 18:56 | 11.08180 | 2.31060 | 36849 ft | 475 kts | 207° |
| 2026-04-22 18:57 | 11.02121 | 2.28287 | 36843 ft | 476 kts | 209° |
| 2026-04-22 18:57 | 10.96694 | 2.24573 | 36854 ft | 470 kts | 221° |
| 2026-04-22 18:58 | 10.91631 | 2.20329 | 36854 ft | 472 kts | 222° |
| 2026-04-22 18:58 | 10.86569 | 2.16081 | 36852 ft | 470 kts | 222° |
| 2026-04-22 18:59 | 10.81533 | 2.11861 | 36856 ft | 468 kts | 222° |
| 2026-04-22 18:59 | 10.76516 | 2.07659 | 36852 ft | 469 kts | 222° |
| 2026-04-22 19:00 | 10.71489 | 2.03452 | 36852 ft | 467 kts | 222° |
| 2026-04-22 19:00 | 10.66428 | 1.99219 | 36850 ft | 468 kts | 221° |
| 2026-04-22 19:01 | 10.61421 | 1.95033 | 36855 ft | 467 kts | 221° |
| 2026-04-22 19:01 | 10.56405 | 1.90841 | 36863 ft | 466 kts | 221° |
| 2026-04-22 19:02 | 10.51403 | 1.86663 | 36865 ft | 466 kts | 221° |
| 2026-04-22 19:02 | 10.46378 | 1.82467 | 36873 ft | 467 kts | 221° |
| 2026-04-22 19:03 | 10.41412 | 1.78323 | 36871 ft | 464 kts | 221° |
| 2026-04-22 19:03 | 10.36398 | 1.74140 | 36876 ft | 465 kts | 221° |
| 2026-04-22 19:04 | 10.31415 | 1.69986 | 36880 ft | 463 kts | 221° |
| 2026-04-22 19:04 | 10.26411 | 1.65814 | 36888 ft | 462 kts | 220° |
| 2026-04-22 19:05 | 10.21441 | 1.61674 | 36898 ft | 465 kts | 220° |
| 2026-04-22 19:05 | 10.16447 | 1.57515 | 36900 ft | 463 kts | 220° |
| 2026-04-22 19:06 | 10.11462 | 1.53366 | 36898 ft | 463 kts | 220° |
| 2026-04-22 19:07 | 10.03950 | 1.47115 | 36893 ft | 466 kts | 220° |
| 2026-04-22 19:07 | 9.98970 | 1.42974 | 36883 ft | 465 kts | 220° |
| 2026-04-22 19:08 | 9.93959 | 1.38809 | 36875 ft | 464 kts | 220° |
| 2026-04-22 19:08 | 9.88966 | 1.34660 | 36896 ft | 464 kts | 219° |
| 2026-04-22 19:09 | 9.83945 | 1.30490 | 36908 ft | 466 kts | 219° |
| 2026-04-22 19:09 | 9.79769 | 1.27023 | 36916 ft | 465 kts | 219° |
| 2026-04-22 19:10 | 9.73930 | 1.22177 | 36923 ft | 465 kts | 219° |
| 2026-04-22 19:10 | 9.68938 | 1.18035 | 36916 ft | 466 kts | 219° |
| 2026-04-22 19:11 | 9.63932 | 1.13885 | 36908 ft | 464 kts | 219° |
| 2026-04-22 19:11 | 9.58908 | 1.09720 | 36895 ft | 467 kts | 219° |
| 2026-04-22 19:12 | 9.53875 | 1.05550 | 36895 ft | 465 kts | 219° |
| 2026-04-22 19:12 | 9.48860 | 1.01398 | 36877 ft | 466 kts | 218° |
| 2026-04-22 19:13 | 9.43290 | 0.98077 | 36877 ft | 465 kts | 202° |
| 2026-04-22 19:13 | 9.37259 | 0.95683 | 36881 ft | 469 kts | 201° |
| 2026-04-22 19:14 | 9.31179 | 0.93303 | 36888 ft | 467 kts | 201° |
| 2026-04-22 19:14 | 9.25155 | 0.90946 | 36892 ft | 465 kts | 201° |
| 2026-04-22 19:15 | 9.20073 | 0.88959 | 36884 ft | 467 kts | 201° |
| 2026-04-22 19:15 | 9.12997 | 0.86193 | 36880 ft | 465 kts | 201° |
| 2026-04-22 19:16 | 9.06931 | 0.83823 | 36873 ft | 467 kts | 201° |
| 2026-04-22 19:16 | 9.00860 | 0.81451 | 36861 ft | 465 kts | 201° |
| 2026-04-22 19:17 | 8.94798 | 0.79084 | 36866 ft | 468 kts | 201° |
| 2026-04-22 19:17 | 8.88776 | 0.76734 | 36885 ft | 466 kts | 201° |
| 2026-04-22 19:18 | 8.82672 | 0.74351 | 36905 ft | 466 kts | 201° |
| 2026-04-22 19:18 | 8.76608 | 0.71986 | 36918 ft | 467 kts | 201° |
| 2026-04-22 19:19 | 8.70536 | 0.69618 | 36909 ft | 467 kts | 201° |
| 2026-04-22 19:19 | 8.64466 | 0.67252 | 36898 ft | 468 kts | 201° |
| 2026-04-22 19:20 | 8.58393 | 0.64886 | 36886 ft | 467 kts | 201° |
| 2026-04-22 19:20 | 8.52358 | 0.62535 | 36871 ft | 466 kts | 201° |
| 2026-04-22 19:21 | 8.46271 | 0.60165 | 36865 ft | 466 kts | 201° |
| 2026-04-22 19:21 | 8.40232 | 0.57814 | 36860 ft | 464 kts | 200° |
| 2026-04-22 19:22 | 8.34191 | 0.55463 | 36860 ft | 467 kts | 200° |
| 2026-04-22 19:22 | 8.28115 | 0.53100 | 36856 ft | 464 kts | 200° |
| 2026-04-22 19:23 | 8.22042 | 0.50740 | 36854 ft | 467 kts | 200° |
| 2026-04-22 19:23 | 8.15972 | 0.48381 | 36852 ft | 468 kts | 200° |
| 2026-04-22 19:24 | 8.09909 | 0.46024 | 36853 ft | 467 kts | 200° |
| 2026-04-22 19:24 | 8.03839 | 0.43667 | 36855 ft | 468 kts | 200° |
| 2026-04-22 19:25 | 7.97751 | 0.41302 | 36852 ft | 467 kts | 200° |
| 2026-04-22 19:25 | 7.91689 | 0.38948 | 36842 ft | 467 kts | 200° |
| 2026-04-22 19:26 | 7.85566 | 0.36571 | 36839 ft | 467 kts | 200° |
| 2026-04-22 19:26 | 7.79481 | 0.34210 | 36828 ft | 466 kts | 200° |
| 2026-04-22 19:27 | 7.73456 | 0.31873 | 36821 ft | 466 kts | 199° |
| 2026-04-22 19:27 | 7.67363 | 0.29511 | 36821 ft | 465 kts | 200° |
| 2026-04-22 19:28 | 7.61316 | 0.27168 | 36818 ft | 467 kts | 200° |
| 2026-04-22 19:28 | 7.55230 | 0.24810 | 36815 ft | 465 kts | 199° |
| 2026-04-22 19:29 | 7.49172 | 0.22463 | 36814 ft | 465 kts | 200° |
| 2026-04-22 19:29 | 7.43145 | 0.20128 | 36510 ft | 458 kts | 199° |
| 2026-04-22 19:29 | 7.40207 | 0.18991 | 35598 ft | 460 kts | 200° |
| 2026-04-22 19:30 | 7.38175 | 0.18205 | 34964 ft | 461 kts | 200° |
| 2026-04-22 19:30 | 7.34212 | 0.16671 | 33864 ft | 460 kts | 200° |
| 2026-04-22 19:30 | 7.31220 | 0.15513 | 33059 ft | 461 kts | 200° |
| 2026-04-22 19:30 | 7.28155 | 0.14328 | 32241 ft | 486 kts | 200° |
| 2026-04-22 19:31 | 7.24945 | 0.13087 | 31331 ft | 500 kts | 201° |
| 2026-04-22 19:31 | 7.21667 | 0.11819 | 30410 ft | 508 kts | 201° |
| 2026-04-22 19:31 | 7.18378 | 0.10547 | 29844 ft | 505 kts | 202° |
| 2026-04-22 19:31 | 7.15115 | 0.09285 | 29321 ft | 505 kts | 202° |
| 2026-04-22 19:32 | 7.11810 | 0.08007 | 28713 ft | 507 kts | 202° |
| 2026-04-22 19:32 | 7.08521 | 0.06735 | 28106 ft | 507 kts | 202° |
| 2026-04-22 19:32 | 7.05227 | 0.05461 | 27469 ft | 503 kts | 202° |
| 2026-04-22 19:32 | 7.01982 | 0.04207 | 26830 ft | 498 kts | 202° |
| 2026-04-22 19:33 | 6.98764 | 0.02963 | 26177 ft | 494 kts | 202° |
| 2026-04-22 19:33 | 6.95540 | 0.01718 | 25512 ft | 489 kts | 201° |
| 2026-04-22 19:33 | 6.92383 | 0.00498 | 24855 ft | 484 kts | 201° |
| 2026-04-22 19:33 | 6.89267 | -0.00706 | 24188 ft | 479 kts | 201° |
| 2026-04-22 19:34 | 6.86177 | -0.01899 | 23521 ft | 473 kts | 200° |
| 2026-04-22 19:34 | 6.83081 | -0.03095 | 22837 ft | 467 kts | 200° |
| 2026-04-22 19:34 | 6.80073 | -0.04257 | 22178 ft | 461 kts | 200° |
| 2026-04-22 19:34 | 6.77105 | -0.05403 | 21542 ft | 455 kts | 200° |
| 2026-04-22 19:35 | 6.74177 | -0.06534 | 20891 ft | 449 kts | 199° |
| 2026-04-22 19:35 | 6.71257 | -0.07661 | 20240 ft | 444 kts | 199° |
| 2026-04-22 19:35 | 6.69362 | -0.08392 | 19813 ft | 441 kts | 199° |
| 2026-04-22 19:35 | 6.65516 | -0.09714 | 18942 ft | 432 kts | 191° |
| 2026-04-22 19:36 | 6.62592 | -0.10161 | 18307 ft | 424 kts | 181° |
| 2026-04-22 19:36 | 6.59666 | -0.10108 | 17673 ft | 417 kts | 173° |
| 2026-04-22 19:36 | 6.56767 | -0.09853 | 17037 ft | 412 kts | 172° |
| 2026-04-22 19:36 | 6.53918 | -0.09584 | 16421 ft | 407 kts | 172° |
| 2026-04-22 19:37 | 6.51123 | -0.09316 | 15803 ft | 403 kts | 172° |
| 2026-04-22 19:37 | 6.48349 | -0.09048 | 15182 ft | 400 kts | 171° |
| 2026-04-22 19:37 | 6.45569 | -0.08777 | 14558 ft | 396 kts | 171° |
| 2026-04-22 19:37 | 6.42829 | -0.08509 | 13938 ft | 393 kts | 171° |
| 2026-04-22 19:38 | 6.40116 | -0.08243 | 13314 ft | 390 kts | 171° |
| 2026-04-22 19:38 | 6.37433 | -0.07979 | 12705 ft | 387 kts | 171° |
| 2026-04-22 19:38 | 6.34774 | -0.07717 | 12093 ft | 384 kts | 171° |
| 2026-04-22 19:38 | 6.32136 | -0.07457 | 11485 ft | 381 kts | 171° |
| 2026-04-22 19:39 | 6.29484 | -0.07195 | 10875 ft | 379 kts | 171° |
| 2026-04-22 19:39 | 6.26865 | -0.06937 | 10537 ft | 368 kts | 171° |
| 2026-04-22 19:39 | 6.24392 | -0.06696 | 10455 ft | 351 kts | 170° |
| 2026-04-22 19:39 | 6.21999 | -0.06461 | 10333 ft | 336 kts | 170° |
| 2026-04-22 19:40 | 6.19708 | -0.06235 | 10184 ft | 324 kts | 170° |
| 2026-04-22 19:40 | 6.17477 | -0.06014 | 10028 ft | 313 kts | 169° |
| 2026-04-22 19:40 | 6.15340 | -0.05802 | 9874 ft | 303 kts | 169° |
| 2026-04-22 19:40 | 6.13255 | -0.05596 | 9623 ft | 298 kts | 170° |
| 2026-04-22 19:41 | 6.11208 | -0.05391 | 9224 ft | 299 kts | 169° |
| 2026-04-22 19:41 | 6.09115 | -0.05183 | 8828 ft | 299 kts | 170° |
| 2026-04-22 19:41 | 6.07029 | -0.04977 | 8447 ft | 299 kts | 170° |
| 2026-04-22 19:41 | 6.04967 | -0.04774 | 8072 ft | 299 kts | 171° |
| 2026-04-22 19:42 | 6.02874 | -0.04567 | 7696 ft | 298 kts | 171° |
| 2026-04-22 19:42 | 6.00817 | -0.04364 | 7332 ft | 298 kts | 171° |
| 2026-04-22 19:42 | 5.98732 | -0.04159 | 6956 ft | 297 kts | 171° |
| 2026-04-22 19:42 | 5.96680 | -0.03956 | 6588 ft | 297 kts | 172° |
| 2026-04-22 19:43 | 5.92614 | -0.03733 | 5956 ft | 294 kts | 189° |
| 2026-04-22 19:43 | 5.90636 | -0.04328 | 5550 ft | 295 kts | 200° |
| 2026-04-22 19:43 | 5.88744 | -0.05093 | 5369 ft | 286 kts | 202° |
| 2026-04-22 19:44 | 5.86902 | -0.05859 | 5040 ft | 287 kts | 202° |
| 2026-04-22 19:44 | 5.85069 | -0.06619 | 4612 ft | 282 kts | 202° |
| 2026-04-22 19:44 | 5.83305 | -0.07385 | 4314 ft | 266 kts | 204° |
| 2026-04-22 19:44 | 5.81673 | -0.08114 | 4041 ft | 249 kts | 203° |
| 2026-04-22 19:45 | 5.80101 | -0.08793 | 3783 ft | 242 kts | 202° |
| 2026-04-22 19:45 | 5.78601 | -0.09405 | 3495 ft | 218 kts | 200° |
| 2026-04-22 19:45 | 5.77238 | -0.09932 | 3252 ft | 202 kts | 200° |
| 2026-04-22 19:45 | 5.75968 | -0.10430 | 2996 ft | 185 kts | 201° |
| 2026-04-22 19:46 | 5.74816 | -0.10893 | 2781 ft | 174 kts | 202° |
| 2026-04-22 19:46 | 5.73738 | -0.11330 | 2574 ft | 158 kts | 202° |
| 2026-04-22 19:46 | 5.72743 | -0.11734 | 2372 ft | 150 kts | 202° |
| 2026-04-22 19:46 | 5.71777 | -0.12128 | 2182 ft | 148 kts | 202° |
| 2026-04-22 19:47 | 5.70821 | -0.12518 | 1989 ft | 146 kts | 202° |
| 2026-04-22 19:47 | 5.69870 | -0.12907 | 1804 ft | 146 kts | 202° |
| 2026-04-22 19:47 | 5.69250 | -0.13160 | 1678 ft | 145 kts | 202° |
| 2026-04-22 19:47 | 5.68007 | -0.13667 | 1434 ft | 144 kts | 202° |
| 2026-04-22 19:48 | 5.67070 | -0.14050 | 1252 ft | 143 kts | 201° |
| 2026-04-22 19:48 | 5.66142 | -0.14430 | 1083 ft | 143 kts | 201° |
| 2026-04-22 19:48 | 5.65224 | -0.14805 | 909 ft | 142 kts | 201° |
| 2026-04-22 19:48 | 5.64292 | -0.15186 | 737 ft | 143 kts | 201° |
| 2026-04-22 19:49 | 5.63364 | -0.15554 | 595 ft | 143 kts | 200° |
| 2026-04-22 19:49 | 5.62405 | -0.15935 | 583 ft | 154 kts | 201° |
| 2026-04-22 19:49 | 5.61400 | -0.16313 | 1280 ft | 158 kts | 200° |
| 2026-04-22 19:49 | 5.60405 | -0.16739 | 1795 ft | 156 kts | 200° |
| 2026-04-22 19:50 | 5.59316 | -0.16864 | 1949 ft | 175 kts | 180° |
| 2026-04-22 19:50 | 5.58042 | -0.17187 | 1970 ft | 202 kts | 217° |
| 2026-04-22 19:50 | 5.57303 | -0.18383 | 1954 ft | 210 kts | 258° |
| 2026-04-22 19:50 | 5.57442 | -0.19841 | 1956 ft | 219 kts | 285° |
| 2026-04-22 19:51 | 5.57944 | -0.21426 | 2552 ft | 249 kts | 287° |
| 2026-04-22 19:51 | 5.58662 | -0.22945 | 2972 ft | 244 kts | 307° |
| 2026-04-22 19:51 | 5.59961 | -0.24027 | 2964 ft | 238 kts | 327° |
| 2026-04-22 19:51 | 5.61404 | -0.24821 | 2950 ft | 238 kts | 342° |
| 2026-04-22 19:52 | 5.63061 | -0.25007 | 2954 ft | 239 kts | 5° |
| 2026-04-22 19:52 | 5.64661 | -0.24552 | 2968 ft | 237 kts | 22° |
| 2026-04-22 19:52 | 5.66175 | -0.23881 | 2973 ft | 239 kts | 25° |
| 2026-04-22 19:52 | 5.67680 | -0.23172 | 2969 ft | 238 kts | 26° |
| 2026-04-22 19:53 | 5.69186 | -0.22463 | 2970 ft | 237 kts | 25° |
| 2026-04-22 19:53 | 5.70693 | -0.21752 | 2969 ft | 238 kts | 25° |
| 2026-04-22 19:53 | 5.71695 | -0.21280 | 2971 ft | 238 kts | 26° |
| 2026-04-22 19:53 | 5.73713 | -0.20330 | 2972 ft | 239 kts | 26° |
| 2026-04-22 19:54 | 5.75193 | -0.19632 | 2895 ft | 232 kts | 25° |
| 2026-04-22 19:54 | 5.76651 | -0.18941 | 2713 ft | 228 kts | 26° |
| 2026-04-22 19:54 | 5.78090 | -0.18253 | 2520 ft | 226 kts | 28° |
| 2026-04-22 19:54 | 5.79226 | -0.17232 | 2314 ft | 218 kts | 59° |
| 2026-04-22 19:55 | 5.79654 | -0.15814 | 2108 ft | 213 kts | 90° |
| 2026-04-22 19:55 | 5.79273 | -0.14405 | 1961 ft | 208 kts | 126° |
| 2026-04-22 19:55 | 5.78159 | -0.13489 | 1961 ft | 210 kts | 155° |
| 2026-04-22 19:55 | 5.76809 | -0.12889 | 1966 ft | 208 kts | 158° |
| 2026-04-22 19:56 | 5.75468 | -0.12311 | 1968 ft | 209 kts | 158° |
| 2026-04-22 19:56 | 5.74138 | -0.11741 | 1964 ft | 208 kts | 160° |
| 2026-04-22 19:56 | 5.72704 | -0.11603 | 1961 ft | 208 kts | 194° |
| 2026-04-22 19:56 | 5.71425 | -0.12235 | 1968 ft | 193 kts | 211° |
| 2026-04-22 19:57 | 5.70301 | -0.12773 | 1937 ft | 167 kts | 201° |
| 2026-04-22 19:57 | 5.69245 | -0.13165 | 1731 ft | 153 kts | 201° |
| 2026-04-22 19:57 | 5.68283 | -0.13558 | 1535 ft | 147 kts | 202° |
| 2026-04-22 19:57 | 5.67348 | -0.13938 | 1342 ft | 143 kts | 202° |
| 2026-04-22 19:58 | 5.66427 | -0.14314 | 1162 ft | 143 kts | 202° |
| 2026-04-22 19:58 | 5.65499 | -0.14693 | 981 ft | 141 kts | 202° |
| 2026-04-22 19:58 | 5.64583 | -0.15066 | 802 ft | 142 kts | 201° |
| 2026-04-22 19:58 | 5.63667 | -0.15426 | 627 ft | 141 kts | 201° |
| 2026-04-22 19:59 | 5.62754 | -0.15801 | 458 ft | 140 kts | 201° |
| 2026-04-22 20:00 | 5.59305 | -0.17223 | 218 ft | 29 kts | 204° |
| 2026-04-22 20:00 | 5.59203 | -0.17278 | 218 ft | 14 kts | 225° |
| 2026-04-22 20:01 | 5.59178 | -0.17364 | 218 ft | 13 kts | 284° |
| 2026-04-22 20:01 | 5.59232 | -0.17435 | 218 ft | 12 kts | 337° |
| 2026-04-22 20:01 | 5.59318 | -0.17426 | 218 ft | 12 kts | 22° |
| 2026-04-22 20:01 | 5.59400 | -0.17393 | 218 ft | 12 kts | 24° |
| 2026-04-22 20:02 | 5.59482 | -0.17358 | 218 ft | 12 kts | 22° |
| 2026-04-22 20:02 | 5.59565 | -0.17325 | 218 ft | 12 kts | 22° |
| 2026-04-22 20:02 | 5.59649 | -0.17291 | 218 ft | 14 kts | 19° |
| 2026-04-22 20:02 | 5.59749 | -0.17252 | 218 ft | 16 kts | 23° |
| 2026-04-22 20:03 | 5.59861 | -0.17204 | 218 ft | 19 kts | 24° |
| 2026-04-22 20:03 | 5.59982 | -0.17153 | 218 ft | 18 kts | 21° |
| 2026-04-22 20:03 | 5.60100 | -0.17106 | 218 ft | 17 kts | 21° |
| 2026-04-22 20:03 | 5.60210 | -0.17061 | 218 ft | 15 kts | 22° |
| 2026-04-22 20:04 | 5.60289 | -0.17042 | 218 ft | 9 kts | 341° |
| 2026-04-22 20:04 | 5.60330 | -0.17089 | 218 ft | 6 kts | 296° |
| 2026-04-22 20:04 | 5.60338 | -0.17109 | 218 ft | 0 kts | 294° |